Time;durP1;ratioP1;P1;durP2;ratioP2;P2;SDS_P1;SDS_P2;PMS_P1;PMS_P2;Temp;Humidity;BMP_temperature;BMP_pressure;BME280_temperature;BME280_humidity;BME280_pressure;Samples;Min_cycle;Max_cycle;Signal;HPM_P1;HPM_P2
2021/07/10 00:02:08;;;;;;;4.60;3.60;;;25.10;97.10;;;;;;5055102;28;20025;-87
2021/07/10 00:04:34;;;;;;;5.82;4.47;;;25.10;97.10;;;;;;5071491;28;20044;-87
2021/07/10 00:07:00;;;;;;;4.57;4.00;;;25.10;97.10;;;;;;5070987;28;20055;-87
2021/07/10 00:09:27;;;;;;;4.22;3.83;;;25.10;97.10;;;;;;5054344;28;20049;-88
2021/07/10 00:11:53;;;;;;;5.20;4.18;;;25.10;97.10;;;;;;5055142;28;20497;-87
2021/07/10 00:14:19;;;;;;;4.82;4.20;;;25.10;97.10;;;;;;5072395;28;20099;-87
2021/07/10 00:16:45;;;;;;;4.13;3.72;;;25.10;97.10;;;;;;5070955;28;20486;-87
2021/07/10 00:19:11;;;;;;;4.55;4.00;;;25.10;97.10;;;;;;5071469;28;20029;-87
2021/07/10 00:21:36;;;;;;;4.63;4.10;;;25.10;97.10;;;;;;5056989;28;20537;-88
2021/07/10 00:24:02;;;;;;;5.35;3.85;;;25.10;97.10;;;;;;5076142;28;20104;-87
2021/07/10 00:26:28;;;;;;;4.22;3.70;;;25.10;97.10;;;;;;5057965;28;20472;-88
2021/07/10 00:28:54;;;;;;;4.32;3.75;;;25.10;97.00;;;;;;5074750;28;20290;-88
2021/07/10 00:31:19;;;;;;;4.10;3.70;;;25.10;97.00;;;;;;5058407;28;20028;-87
2021/07/10 00:33:45;;;;;;;4.47;4.05;;;25.10;97.10;;;;;;5058208;28;20481;-88
2021/07/10 00:36:11;;;;;;;4.47;3.83;;;25.10;97.10;;;;;;5078697;28;20028;-87
2021/07/10 00:38:37;;;;;;;5.32;3.75;;;25.10;97.10;;;;;;5077597;28;20028;-88
2021/07/10 00:41:03;;;;;;;4.18;3.78;;;25.10;97.00;;;;;;5075159;28;20470;-86
2021/07/10 00:43:29;;;;;;;4.05;3.65;;;25.10;97.00;;;;;;5076034;28;20025;-88
2021/07/10 00:45:54;;;;;;;4.82;3.90;;;25.10;97.00;;;;;;5058359;28;20500;-87
2021/07/10 00:48:20;;;;;;;3.85;3.53;;;25.10;97.00;;;;;;5075062;28;20474;-87
2021/07/10 00:50:46;;;;;;;4.10;3.70;;;25.10;97.00;;;;;;5058170;28;20033;-86
2021/07/10 00:53:12;;;;;;;3.65;3.33;;;25.10;97.00;;;;;;5058271;28;20052;-87
2021/07/10 00:55:38;;;;;;;3.85;3.53;;;25.10;97.00;;;;;;5074678;28;20029;-87
2021/07/10 00:58:04;;;;;;;4.28;3.80;;;25.10;97.00;;;;;;5076454;28;20112;-86
2021/07/10 01:00:30;;;;;;;5.63;4.22;;;25.10;97.00;;;;;;5057756;28;20052;-89
2021/07/10 01:02:56;;;;;;;4.65;3.92;;;25.10;97.00;;;;;;5075098;28;20056;-86
2021/07/10 01:05:27;;;;;;;4.38;3.97;;;25.00;97.00;;;;;;5076687;28;20036;-86
2021/07/10 01:07:53;;;;;;;4.50;4.10;;;25.10;97.00;;;;;;5075834;28;20028;-86
2021/07/10 01:10:18;;;;;;;4.40;3.90;;;25.00;97.00;;;;;;5075742;28;20501;-86
2021/07/10 01:12:46;;;;;;;4.95;4.30;;;25.00;97.00;;;;;;5074687;28;20032;-87
2021/07/10 01:15:14;;;;;;;4.13;3.72;;;25.00;97.00;;;;;;5075842;28;20553;-87
2021/07/10 01:17:42;;;;;;;4.47;4.05;;;25.10;97.00;;;;;;5074507;28;20032;-86
2021/07/10 01:20:10;;;;;;;4.40;3.97;;;25.00;97.00;;;;;;5058266;28;20033;-87
2021/07/10 01:22:40;;;;;;;4.18;3.78;;;25.10;97.00;;;;;;5073995;28;20025;-87
2021/07/10 01:25:09;;;;;;;4.47;4.03;;;25.00;97.00;;;;;;5074147;28;20036;-86
2021/07/10 01:27:35;;;;;;;4.50;4.05;;;25.00;97.00;;;;;;5073458;28;20099;-87
2021/07/10 01:30:13;;;;;;;4.40;4.00;;;25.00;97.00;;;;;;5074085;28;20040;-86
2021/07/10 01:32:40;;;;;;;4.70;4.20;;;25.00;97.00;;;;;;5074624;28;20035;-87
2021/07/10 01:35:07;;;;;;;3.72;3.42;;;25.10;97.00;;;;;;5073570;28;20036;-87
2021/07/10 01:37:34;;;;;;;4.30;3.85;;;25.00;96.90;;;;;;5073840;28;20031;-86
2021/07/10 01:39:59;;;;;;;4.68;4.20;;;25.00;96.90;;;;;;5057015;28;20025;-87
2021/07/10 01:42:25;;;;;;;5.53;4.03;;;25.00;96.90;;;;;;5074318;28;20039;-86
2021/07/10 01:44:51;;;;;;;5.10;4.20;;;25.00;96.90;;;;;;5058409;28;20525;-86
2021/07/10 01:47:18;;;;;;;4.45;3.95;;;25.00;96.90;;;;;;5040770;28;20056;-86
2021/07/10 01:49:44;;;;;;;5.07;4.05;;;25.00;96.90;;;;;;5073586;28;20048;-86
2021/07/10 01:52:09;;;;;;;5.10;4.35;;;25.00;96.90;;;;;;5073277;28;20024;-86
2021/07/10 01:54:35;;;;;;;4.57;4.13;;;25.00;96.90;;;;;;5073141;28;20482;-85
2021/07/10 01:57:05;;;;;;;6.28;4.40;;;25.00;96.90;;;;;;5072861;28;20473;-86
2021/07/10 01:59:31;;;;;;;4.57;4.10;;;25.00;96.80;;;;;;5057510;28;20028;-86
2021/07/10 02:01:56;;;;;;;4.32;3.92;;;25.10;96.90;;;;;;5075241;28;20513;-85
2021/07/10 02:04:22;;;;;;;5.15;4.00;;;25.00;96.80;;;;;;5040524;28;20032;-87
2021/07/10 02:06:48;;;;;;;5.55;4.63;;;25.00;96.80;;;;;;5073126;28;20060;-86
2021/07/10 02:09:14;;;;;;;4.70;4.18;;;25.00;96.80;;;;;;5077587;28;20408;-86
2021/07/10 02:11:50;;;;;;;4.97;3.92;;;25.00;96.80;;;;;;5094438;28;20020;-86
2021/07/10 02:14:18;;;;;;;4.80;4.18;;;25.00;96.80;;;;;;5076823;28;20096;-86
2021/07/10 02:16:46;;;;;;;4.35;3.95;;;25.00;96.80;;;;;;5094399;28;20081;-86
2021/07/10 02:19:12;;;;;;;4.28;3.88;;;25.00;96.90;;;;;;5076256;28;20115;-88
2021/07/10 02:21:38;;;;;;;4.00;3.60;;;25.00;96.80;;;;;;5076337;28;20113;-87
2021/07/10 02:24:07;;;;;;;4.75;4.30;;;25.00;96.90;;;;;;5076172;28;20024;-86
2021/07/10 02:26:34;;;;;;;4.88;4.38;;;25.00;96.90;;;;;;5076125;28;20050;-86
2021/07/10 02:29:01;;;;;;;4.78;4.28;;;25.00;96.90;;;;;;5059593;28;20474;-86
2021/07/10 02:31:27;;;;;;;4.28;3.88;;;25.00;96.90;;;;;;5076848;28;20055;-86
2021/07/10 02:33:53;;;;;;;4.80;4.30;;;25.00;96.90;;;;;;5059637;28;20546;-86
2021/07/10 02:36:19;;;;;;;5.05;4.38;;;25.00;96.90;;;;;;5076377;28;20060;-86
2021/07/10 02:38:45;;;;;;;4.63;4.05;;;25.00;96.90;;;;;;5094613;28;20060;-87
2021/07/10 02:41:11;;;;;;;5.25;4.75;;;25.00;96.90;;;;;;5076309;28;20104;-86
2021/07/10 02:43:37;;;;;;;4.32;3.92;;;25.00;96.90;;;;;;5076020;28;20051;-86
2021/07/10 02:46:03;;;;;;;4.80;4.22;;;25.00;97.00;;;;;;5093817;28;20539;-86
2021/07/10 02:48:29;;;;;;;4.78;4.25;;;25.00;97.00;;;;;;5093901;28;20382;-87
2021/07/10 02:50:54;;;;;;;4.90;4.30;;;25.00;97.00;;;;;;5093973;28;20035;-86
2021/07/10 02:53:20;;;;;;;5.30;4.55;;;25.00;96.90;;;;;;5059623;28;20081;-87
2021/07/10 02:55:46;;;;;;;4.95;4.22;;;25.00;97.00;;;;;;5093644;28;20470;-87
2021/07/10 02:58:11;;;;;;;4.47;3.97;;;25.00;96.90;;;;;;5075955;28;20062;-86
2021/07/10 03:00:37;;;;;;;5.28;4.63;;;25.00;96.90;;;;;;5075726;28;20059;-86
2021/07/10 03:03:03;;;;;;;4.78;4.28;;;25.00;96.90;;;;;;5075793;28;20126;-86
2021/07/10 03:05:29;;;;;;;5.05;4.35;;;25.00;96.90;;;;;;5075467;28;20039;-86
2021/07/10 03:07:55;;;;;;;5.07;4.22;;;25.00;96.90;;;;;;5075250;28;20047;-87
2021/07/10 03:10:27;;;;;;;6.25;4.50;;;25.00;96.90;;;;;;5093802;28;20055;-86
2021/07/10 03:12:54;;;;;;;5.53;4.70;;;25.00;96.90;;;;;;5093418;28;20072;-86
2021/07/10 03:15:20;;;;;;;4.95;4.45;;;25.00;96.90;;;;;;5059017;28;20028;-87
2021/07/10 03:17:48;;;;;;;5.60;4.40;;;25.00;96.80;;;;;;5059036;28;20545;-87
2021/07/10 03:20:15;;;;;;;5.45;4.70;;;25.00;96.80;;;;;;5075299;28;20024;-87
2021/07/10 03:22:41;;;;;;;5.07;4.45;;;24.90;96.80;;;;;;5075320;28;20469;-87
2021/07/10 03:25:09;;;;;;;6.30;4.97;;;25.00;96.80;;;;;;5058809;28;20039;-86
2021/07/10 03:27:35;;;;;;;5.20;4.70;;;25.00;96.80;;;;;;5093300;28;20481;-86
2021/07/10 03:30:03;;;;;;;5.50;4.65;;;25.00;96.80;;;;;;5093717;28;20485;-86
2021/07/10 03:32:29;;;;;;;4.88;4.40;;;25.00;97.10;;;;;;5075349;28;20020;-86
2021/07/10 03:34:54;;;;;;;5.03;4.28;;;25.00;96.80;;;;;;5058499;28;20543;-87
2021/07/10 03:37:20;;;;;;;5.72;4.78;;;25.00;96.80;;;;;;5075143;28;20040;-86
2021/07/10 03:39:45;;;;;;;5.38;4.53;;;25.00;96.80;;;;;;5058588;28;20060;-87
2021/07/10 03:42:11;;;;;;;6.55;5.47;;;24.90;96.80;;;;;;5075122;28;20111;-87
2021/07/10 03:44:37;;;;;;;4.70;4.20;;;24.90;96.80;;;;;;5059323;28;20028;-87
2021/07/10 03:47:02;;;;;;;5.80;5.07;;;24.90;96.80;;;;;;5076284;28;20036;-86
2021/07/10 03:49:28;;;;;;;5.03;4.47;;;24.90;96.80;;;;;;5096439;28;20462;-86
2021/07/10 03:51:54;;;;;;;6.18;4.93;;;24.90;96.90;;;;;;5059402;28;20032;-87
2021/07/10 03:54:19;;;;;;;5.75;5.03;;;24.90;96.90;;;;;;5093460;28;20024;-87
2021/07/10 03:56:45;;;;;;;5.63;4.90;;;25.00;96.90;;;;;;5061512;28;20028;-87
2021/07/10 03:59:11;;;;;;;5.85;4.78;;;25.00;96.90;;;;;;5062862;28;20032;-87
2021/07/10 04:01:36;;;;;;;5.72;5.13;;;25.00;96.90;;;;;;5079426;28;20132;-87
2021/07/10 04:04:03;;;;;;;5.57;4.97;;;24.90;96.90;;;;;;5078964;28;20039;-87
2021/07/10 04:06:28;;;;;;;5.32;4.80;;;24.90;96.90;;;;;;5097168;28;20023;-87
2021/07/10 04:08:54;;;;;;;6.68;4.95;;;24.90;96.90;;;;;;5096991;28;20497;-88
2021/07/10 04:11:20;;;;;;;5.80;5.00;;;24.90;96.90;;;;;;5079122;28;20028;-87
2021/07/10 04:13:46;;;;;;;5.45;4.75;;;24.90;96.90;;;;;;5079283;28;20031;-87
2021/07/10 04:16:12;;;;;;;7.88;5.45;;;24.90;96.90;;;;;;5096724;28;20103;-86
2021/07/10 04:18:37;;;;;;;5.55;4.85;;;24.90;96.90;;;;;;5062454;28;20464;-87
2021/07/10 04:21:04;;;;;;;5.38;4.57;;;24.90;96.90;;;;;;5078712;28;20458;-86
2021/07/10 04:23:30;;;;;;;6.80;5.22;;;24.90;97.00;;;;;;5078849;28;20030;-86
2021/07/10 04:25:55;;;;;;;6.22;5.15;;;24.90;97.00;;;;;;5078309;28;20119;-88
2021/07/10 04:28:21;;;;;;;4.85;4.38;;;25.00;97.00;;;;;;5061637;28;20067;-86
2021/07/10 04:30:47;;;;;;;5.72;4.85;;;24.90;97.00;;;;;;5078305;28;20435;-86
2021/07/10 04:33:12;;;;;;;5.05;4.32;;;24.90;97.00;;;;;;5078153;28;20035;-87
2021/07/10 04:35:38;;;;;;;5.82;4.70;;;24.90;97.10;;;;;;5096285;28;20381;-87
2021/07/10 04:38:04;;;;;;;5.03;4.55;;;24.90;97.10;;;;;;5061771;28;20470;-87
2021/07/10 04:40:29;;;;;;;5.05;4.38;;;24.90;97.10;;;;;;5061247;28;20077;-87
2021/07/10 04:42:55;;;;;;;4.65;4.22;;;24.90;97.10;;;;;;5097321;28;20028;-86
2021/07/10 04:45:21;;;;;;;4.93;4.43;;;24.90;97.10;;;;;;5078144;28;20032;-87
2021/07/10 04:47:46;;;;;;;5.82;4.88;;;24.90;97.10;;;;;;5096253;28;20038;-87
2021/07/10 04:50:14;;;;;;;5.30;4.63;;;24.90;97.20;;;;;;5078283;28;20511;-87
2021/07/10 04:52:43;;;;;;;6.05;5.03;;;24.90;97.20;;;;;;5096289;28;20087;-86
2021/07/10 04:55:10;;;;;;;5.22;4.50;;;24.90;97.20;;;;;;5077706;28;20123;-86
2021/07/10 04:57:36;;;;;;;5.93;5.13;;;24.90;97.20;;;;;;5078241;28;20104;-87
2021/07/10 05:00:04;;;;;;;5.55;4.53;;;24.90;97.20;;;;;;5095963;28;20469;-87
2021/07/10 05:02:30;;;;;;;4.80;4.30;;;24.90;97.50;;;;;;5077918;28;20020;-87
2021/07/10 05:04:56;;;;;;;5.85;5.00;;;24.90;97.20;;;;;;5095980;28;20028;-87
2021/07/10 05:07:22;;;;;;;5.90;5.25;;;24.90;97.20;;;;;;5076823;28;20051;-87
2021/07/10 05:09:48;;;;;;;6.00;5.40;;;24.90;97.20;;;;;;5095588;28;20085;-87
2021/07/10 05:12:15;;;;;;;5.20;4.70;;;24.90;97.20;;;;;;5077731;28;20115;-86
2021/07/10 05:14:41;;;;;;;5.75;5.00;;;24.90;97.20;;;;;;5077289;28;20035;-87
2021/07/10 05:17:06;;;;;;;5.45;4.65;;;24.90;97.20;;;;;;5095466;28;20030;-87
2021/07/10 05:19:32;;;;;;;5.10;4.60;;;24.90;97.20;;;;;;5095671;28;20493;-88
2021/07/10 05:21:58;;;;;;;5.45;4.72;;;24.90;97.20;;;;;;5078615;28;20024;-87
2021/07/10 05:24:23;;;;;;;5.38;4.80;;;24.90;97.20;;;;;;5044318;28;20028;-87
2021/07/10 05:26:49;;;;;;;6.40;4.85;;;24.90;97.20;;;;;;5061111;28;20071;-87
2021/07/10 05:29:16;;;;;;;4.80;4.32;;;24.90;97.20;;;;;;5043997;28;20031;-87
2021/07/10 05:31:41;;;;;;;4.90;4.40;;;24.90;97.20;;;;;;5061492;28;20385;-87
2021/07/10 05:34:07;;;;;;;5.55;4.65;;;24.90;97.20;;;;;;5077281;28;20028;-87
2021/07/10 05:36:33;;;;;;;5.10;4.43;;;24.90;97.20;;;;;;5079327;28;20512;-86
2021/07/10 05:38:58;;;;;;;4.97;4.00;;;24.90;97.20;;;;;;5062387;28;20359;-86
2021/07/10 05:41:24;;;;;;;4.95;4.45;;;24.90;97.20;;;;;;5079525;28;20410;-87
2021/07/10 05:43:50;;;;;;;4.22;3.83;;;24.90;97.20;;;;;;5080686;28;20050;-87
2021/07/10 05:46:15;;;;;;;4.45;4.05;;;24.90;97.20;;;;;;5078470;28;20032;-87
2021/07/10 05:48:41;;;;;;;4.90;4.40;;;24.90;97.10;;;;;;5076994;28;20035;-87
2021/07/10 05:51:07;;;;;;;4.35;3.95;;;24.90;97.10;;;;;;5094742;28;20115;-92
2021/07/10 05:53:33;;;;;;;4.60;4.20;;;24.90;97.10;;;;;;5060470;28;20028;-86
2021/07/10 05:55:59;;;;;;;5.20;4.50;;;24.90;97.30;;;;;;5077193;28;20119;-87
2021/07/10 05:58:25;;;;;;;5.00;4.30;;;24.90;97.00;;;;;;5094499;28;20035;-86
2021/07/10 06:00:50;;;;;;;4.72;4.25;;;24.90;97.00;;;;;;5095408;28;20081;-87
2021/07/10 06:03:16;;;;;;;4.38;3.80;;;24.90;97.00;;;;;;5060220;28;20077;-86
2021/07/10 06:05:42;;;;;;;4.93;4.43;;;24.90;96.90;;;;;;5059886;28;20405;-87
2021/07/10 06:08:08;;;;;;;5.15;4.50;;;24.90;96.90;;;;;;5076842;28;20040;-86
2021/07/10 06:10:34;;;;;;;4.53;4.13;;;24.90;96.90;;;;;;5060323;28;20443;-86
2021/07/10 06:12:59;;;;;;;5.22;4.72;;;24.90;96.90;;;;;;5080881;28;20445;-86
2021/07/10 06:15:25;;;;;;;4.40;4.00;;;24.90;96.90;;;;;;5079672;28;20036;-86
2021/07/10 06:17:51;;;;;;;4.63;4.20;;;24.90;96.80;;;;;;5077497;28;20390;-86
2021/07/10 06:20:17;;;;;;;4.28;3.88;;;24.90;96.80;;;;;;5076475;28;20028;-87
2021/07/10 06:22:46;;;;;;;4.28;3.88;;;24.90;96.80;;;;;;5076447;28;20485;-87
2021/07/10 06:25:14;;;;;;;5.03;4.53;;;24.90;96.80;;;;;;5075913;28;20027;-89
2021/07/10 06:27:40;;;;;;;5.28;4.75;;;24.90;96.80;;;;;;5095226;28;20166;-87
2021/07/10 06:30:07;;;;;;;5.15;4.65;;;24.90;96.70;;;;;;5094509;28;20107;-85
2021/07/10 06:32:33;;;;;;;5.13;4.55;;;24.90;96.80;;;;;;5094353;28;20035;-86
2021/07/10 06:34:58;;;;;;;4.32;3.92;;;24.90;96.70;;;;;;5076247;28;20028;-86
2021/07/10 06:37:24;;;;;;;4.72;4.32;;;24.90;96.70;;;;;;5093856;28;20058;-87
2021/07/10 06:39:50;;;;;;;5.32;4.72;;;24.90;96.70;;;;;;5076025;28;20060;-86
2021/07/10 06:42:18;;;;;;;4.40;3.97;;;24.90;96.70;;;;;;5076601;28;20400;-88
2021/07/10 06:44:44;;;;;;;4.60;4.20;;;24.90;96.70;;;;;;5045899;28;20035;-85
2021/07/10 06:47:10;;;;;;;4.40;4.00;;;24.90;96.70;;;;;;5045046;28;20040;-87
2021/07/10 06:49:36;;;;;;;4.82;4.32;;;24.90;96.70;;;;;;5060172;28;20035;-87
2021/07/10 06:52:01;;;;;;;6.65;5.72;;;24.90;96.70;;;;;;5059577;28;20028;-87
2021/07/10 06:54:27;;;;;;;8.05;7.18;;;24.90;96.80;;;;;;5093862;28;20054;-87
2021/07/10 06:56:53;;;;;;;9.07;7.95;;;25.00;96.80;;;;;;5059575;28;20489;-87
2021/07/10 06:59:19;;;;;;;10.23;9.13;;;25.00;96.90;;;;;;5076454;28;20043;-87
2021/07/10 07:01:46;;;;;;;10.13;8.95;;;25.00;96.90;;;;;;5060769;28;20054;-87
2021/07/10 07:04:12;;;;;;;10.90;9.35;;;25.10;96.90;;;;;;5059736;28;20024;-87
2021/07/10 07:06:37;;;;;;;11.85;9.98;;;25.20;97.00;;;;;;5093593;28;20103;-87
2021/07/10 07:09:04;;;;;;;12.23;9.73;;;25.20;97.00;;;;;;5059196;28;20377;-87
2021/07/10 07:11:30;;;;;;;11.82;9.52;;;25.30;97.10;;;;;;5075709;28;20101;-87
2021/07/10 07:13:55;;;;;;;11.38;9.65;;;25.30;97.20;;;;;;5075647;28;20458;-86
2021/07/10 07:16:21;;;;;;;9.48;8.50;;;25.30;97.10;;;;;;5059040;28;20482;-87
2021/07/10 07:18:46;;;;;;;8.57;7.68;;;25.40;97.10;;;;;;5059615;28;20032;-86
2021/07/10 07:21:12;;;;;;;9.15;7.03;;;25.40;97.10;;;;;;5046847;28;20028;-84
2021/07/10 07:23:38;;;;;;;9.55;8.55;;;25.30;97.00;;;;;;5042731;28;20147;-85
2021/07/10 07:26:03;;;;;;;8.23;7.40;;;25.40;97.20;;;;;;5093441;28;20031;-86
2021/07/10 07:28:29;;;;;;;8.90;7.63;;;25.40;97.20;;;;;;5092999;28;20036;-85
2021/07/10 07:30:55;;;;;;;9.20;7.82;;;25.30;97.30;;;;;;5092904;28;20036;-85
2021/07/10 07:33:21;;;;;;;7.95;6.90;;;25.30;97.30;;;;;;5092635;28;20039;-85
2021/07/10 07:35:47;;;;;;;7.93;7.13;;;25.30;97.30;;;;;;5075076;28;20024;-87
2021/07/10 07:38:12;;;;;;;7.30;6.38;;;25.30;97.30;;;;;;5075244;28;20029;-86
2021/07/10 07:40:38;;;;;;;7.53;6.35;;;25.30;97.20;;;;;;5093391;28;20032;-88
2021/07/10 07:43:04;;;;;;;6.65;5.95;;;25.20;97.20;;;;;;5076464;28;20102;-86
2021/07/10 07:45:29;;;;;;;6.40;5.70;;;25.20;97.10;;;;;;5095594;28;20031;-86
2021/07/10 07:47:55;;;;;;;8.57;6.20;;;25.20;97.10;;;;;;5075734;28;20035;-86
2021/07/10 07:50:21;;;;;;;6.25;5.65;;;25.10;97.10;;;;;;5077674;28;20028;-88
2021/07/10 07:52:47;;;;;;;7.03;6.32;;;25.10;97.00;;;;;;5076229;28;20035;-87
2021/07/10 07:55:14;;;;;;;6.05;5.45;;;25.10;97.00;;;;;;5093996;28;20055;-87
2021/07/10 07:57:41;;;;;;;6.00;5.40;;;25.00;97.00;;;;;;5094337;28;20036;-87
2021/07/10 08:00:19;;;;;;;6.43;5.55;;;25.00;97.00;;;;;;5094530;28;20032;-87
2021/07/10 08:02:47;;;;;;;5.32;4.82;;;25.10;97.00;;;;;;5094139;28;20036;-87
2021/07/10 08:05:13;;;;;;;6.15;5.55;;;25.00;96.90;;;;;;5076218;28;20170;-87
2021/07/10 08:07:40;;;;;;;5.38;4.88;;;25.00;96.90;;;;;;5059114;28;20052;-87
2021/07/10 08:10:12;;;;;;;5.22;4.72;;;25.00;96.90;;;;;;5094675;28;20151;-87
2021/07/10 08:12:38;;;;;;;5.03;4.53;;;25.00;96.90;;;;;;5076225;28;20036;-86
2021/07/10 08:15:06;;;;;;;5.22;4.72;;;25.00;96.90;;;;;;5076443;28;20024;-88
2021/07/10 08:17:32;;;;;;;5.20;4.70;;;25.00;96.90;;;;;;5077595;28;20035;-88
2021/07/10 08:19:58;;;;;;;5.68;4.72;;;25.00;96.90;;;;;;5060558;28;20028;-87
2021/07/10 08:22:24;;;;;;;5.03;4.53;;;25.00;96.90;;;;;;5074746;28;20020;-86
2021/07/10 08:24:50;;;;;;;5.32;4.82;;;25.00;96.90;;;;;;5058503;28;20035;-84
2021/07/10 08:27:15;;;;;;;5.32;4.50;;;25.00;97.10;;;;;;5093245;28;20481;-82
2021/07/10 08:29:42;;;;;;;4.68;4.18;;;25.00;96.90;;;;;;5080467;28;20473;-87
2021/07/10 08:32:08;;;;;;;5.00;4.22;;;25.00;96.90;;;;;;5076704;28;20024;-83
2021/07/10 08:34:34;;;;;;;4.30;3.90;;;25.00;96.90;;;;;;5074691;28;20103;-83
2021/07/10 08:37:02;;;;;;;4.60;4.20;;;25.00;96.80;;;;;;5092311;28;20163;-83
2021/07/10 08:39:29;;;;;;;4.25;3.85;;;25.00;96.80;;;;;;5058180;28;20123;-83
2021/07/10 08:41:54;;;;;;;3.97;3.58;;;25.00;96.80;;;;;;5074566;28;20036;-83
2021/07/10 08:44:20;;;;;;;4.20;3.80;;;25.00;96.70;;;;;;5061302;28;20485;-83
2021/07/10 08:46:47;;;;;;;3.88;3.47;;;25.00;96.70;;;;;;5077700;28;20059;-83
2021/07/10 08:49:15;;;;;;;3.45;3.15;;;25.00;96.70;;;;;;5078123;28;20032;-84
2021/07/10 08:51:45;;;;;;;3.90;3.60;;;25.00;96.70;;;;;;5095444;28;20103;-83
2021/07/10 08:54:11;;;;;;;3.40;3.10;;;25.00;96.70;;;;;;5096305;28;20089;-83
2021/07/10 08:56:37;;;;;;;3.47;3.17;;;25.10;96.70;;;;;;5078094;28;20039;-84
2021/07/10 08:59:02;;;;;;;4.03;3.63;;;25.00;96.60;;;;;;5078050;28;20060;-83
2021/07/10 09:01:28;;;;;;;3.78;3.40;;;25.10;96.70;;;;;;5078084;28;20063;-83
2021/07/10 09:03:54;;;;;;;3.67;3.38;;;25.10;96.60;;;;;;5077824;28;20074;-84
2021/07/10 09:06:19;;;;;;;3.35;3.05;;;25.00;96.60;;;;;;5096117;28;20366;-83
2021/07/10 09:08:52;;;;;;;3.83;3.35;;;25.10;96.60;;;;;;5077285;28;20077;-83
2021/07/10 09:11:18;;;;;;;5.22;4.72;;;25.10;96.60;;;;;;5092498;28;20094;-87
2021/07/10 09:13:55;;;;;;;6.28;5.63;;;25.10;96.70;;;;;;5079667;28;20027;-87
2021/07/10 09:16:30;;;;;;;6.50;5.80;;;25.20;96.70;;;;;;5079568;28;20023;-86
2021/07/10 09:19:00;;;;;;;7.47;6.68;;;25.10;96.60;;;;;;5078931;28;20055;-86
2021/07/10 09:21:34;;;;;;;7.43;6.05;;;25.20;96.60;;;;;;5078590;28;20034;-86
2021/07/10 09:24:01;;;;;;;8.25;6.43;;;25.20;96.60;;;;;;5096167;28;20035;-87
2021/07/10 09:26:27;;;;;;;7.38;6.40;;;25.20;96.60;;;;;;5078611;28;20040;-87
2021/07/10 09:29:19;;;;;;;7.38;6.38;;;25.30;96.60;;;;;;5077940;28;20401;-87
2021/07/10 09:31:56;;;;;;;7.03;6.07;;;25.30;96.60;;;;;;5096196;28;20213;-89
2021/07/10 09:34:43;;;;;;;7.10;6.40;;;25.30;96.60;;;;;;5079175;28;20085;-91
2021/07/10 09:37:26;;;;;;;8.98;7.32;;;25.30;96.60;;;;;;5098204;28;20032;-89
2021/07/10 09:39:57;;;;;;;9.07;7.30;;;25.30;96.70;;;;;;5096451;28;20028;-88
2021/07/10 09:42:30;;;;;;;9.35;6.88;;;25.40;96.70;;;;;;5076637;28;20027;-89
2021/07/10 09:44:56;;;;;;;10.15;7.97;;;25.40;96.70;;;;;;5077109;28;20111;-89
2021/07/10 09:47:31;;;;;;;8.57;7.68;;;25.40;96.70;;;;;;5061357;28;20123;-89
2021/07/10 09:49:58;;;;;;;9.45;7.65;;;25.40;96.70;;;;;;5096708;28;20100;-90
2021/07/10 09:52:28;;;;;;;8.98;7.68;;;25.40;96.60;;;;;;5079811;28;20024;-89
2021/07/10 09:55:06;;;;;;;9.75;6.85;;;25.40;96.60;;;;;;5095098;28;20028;-88
2021/07/10 09:57:37;;;;;;;7.63;6.82;;;25.50;96.60;;;;;;5077930;28;20032;-89
2021/07/10 10:00:07;;;;;;;9.10;6.82;;;25.40;96.60;;;;;;5076725;28;20118;-87
2021/07/10 10:02:42;;;;;;;7.55;6.47;;;25.50;96.60;;;;;;5095400;28;20130;-88
2021/07/10 10:05:13;;;;;;;8.75;6.72;;;25.50;96.60;;;;;;5097684;28;20035;-86
2021/07/10 10:07:48;;;;;;;7.93;6.75;;;25.50;96.60;;;;;;5078961;28;20047;-87
2021/07/10 10:10:31;;;;;;;8.00;6.47;;;25.50;96.60;;;;;;5095572;28;20575;-86
2021/07/10 10:13:09;;;;;;;7.15;6.45;;;25.50;96.60;;;;;;5077641;28;20024;-86
2021/07/10 10:15:43;;;;;;;6.45;5.65;;;25.50;96.60;;;;;;5078279;28;20092;-87
2021/07/10 10:18:11;;;;;;;6.72;5.78;;;25.50;96.60;;;;;;5076919;28;20046;-85
2021/07/10 10:20:39;;;;;;;6.28;5.65;;;25.50;96.60;;;;;;5076541;28;20032;-86
2021/07/10 10:23:06;;;;;;;7.10;5.70;;;25.40;96.60;;;;;;5094296;28;20114;-88
2021/07/10 10:25:34;;;;;;;5.22;4.72;;;25.40;96.70;;;;;;5076534;28;20031;-86
2021/07/10 10:28:02;;;;;;;7.53;5.57;;;25.40;96.60;;;;;;5076416;28;20032;-86
2021/07/10 10:30:28;;;;;;;5.00;4.50;;;25.40;96.60;;;;;;5094222;28;20032;-86
2021/07/10 10:32:54;;;;;;;5.47;4.90;;;25.40;96.60;;;;;;5059807;28;20035;-87
2021/07/10 10:35:19;;;;;;;4.78;4.30;;;25.40;96.60;;;;;;5076828;28;20087;-86
2021/07/10 10:37:46;;;;;;;4.80;3.85;;;25.40;96.60;;;;;;5094356;28;20097;-88
2021/07/10 10:40:20;;;;;;;5.35;4.70;;;25.40;96.60;;;;;;5076447;28;20048;-86
2021/07/10 10:42:50;;;;;;;;;;;25.40;96.70;;;;;;5075804;28;20028;-91
2021/07/10 10:45:16;;;;;;;4.68;4.07;;;25.40;96.70;;;;;;5096816;28;19908;-87
2021/07/10 10:47:49;;;;;;;4.78;4.22;;;25.40;96.90;;;;;;5077656;28;20463;-88
2021/07/10 10:50:41;;;;;;;5.85;4.65;;;25.40;97.20;;;;;;5093893;28;20484;-85
2021/07/10 10:53:09;;;;;;;5.55;4.00;;;25.40;97.80;;;;;;5070909;28;20065;-85
2021/07/10 10:55:37;;;;;;;4.22;3.83;;;25.50;98.00;;;;;;5093922;28;20542;-86
2021/07/10 10:58:29;;;;;;;3.90;3.33;;;25.50;98.00;;;;;;5074817;28;20393;-86
2021/07/10 11:01:09;;;;;;;3.97;3.58;;;25.50;97.90;;;;;;5075856;28;20028;-87
2021/07/10 11:03:43;;;;;;;3.60;3.08;;;25.50;97.80;;;;;;5094457;28;20024;-86
2021/07/10 11:06:30;;;;;;;3.50;2.97;;;25.40;97.60;;;;;;5074292;28;20032;-87
2021/07/10 11:08:58;;;;;;;3.05;2.75;;;25.40;97.50;;;;;;5076430;28;20043;-86
2021/07/10 11:11:27;;;;;;;3.25;2.95;;;25.40;97.40;;;;;;5076222;28;20490;-87
2021/07/10 11:14:08;;;;;;;3.13;2.83;;;25.40;97.20;;;;;;5076014;28;20470;-88
2021/07/10 11:16:35;;;;;;;2.75;2.55;;;25.40;97.10;;;;;;5093713;28;20032;-87
2021/07/10 11:19:08;;;;;;;3.03;2.72;;;25.40;97.00;;;;;;5075572;28;20123;-87
2021/07/10 11:21:48;;;;;;;2.70;2.50;;;25.40;97.00;;;;;;5076180;28;20088;-87
2021/07/10 11:24:17;;;;;;;2.60;2.40;;;25.40;97.00;;;;;;5075225;28;20115;-87
2021/07/10 11:26:52;;;;;;;3.00;2.70;;;25.40;97.00;;;;;;5075182;28;20024;-88
2021/07/10 11:29:40;;;;;;;2.40;2.20;;;25.40;96.90;;;;;;5059369;28;20029;-87
2021/07/10 11:32:11;;;;;;;2.47;2.28;;;25.40;96.90;;;;;;5068158;28;20057;-88
2021/07/10 11:34:47;;;;;;;2.10;1.90;;;25.40;96.80;;;;;;5062482;28;20033;-89
2021/07/10 11:37:21;;;;;;;2.30;2.10;;;25.40;96.80;;;;;;5077548;28;20131;-88
2021/07/10 11:39:53;;;;;;;1.88;1.77;;;25.40;96.70;;;;;;5095608;28;20032;-88
2021/07/10 11:42:28;;;;;;;2.35;2.15;;;25.40;96.70;;;;;;5078209;28;20032;-88
2021/07/10 11:45:04;;;;;;;2.38;2.13;;;25.40;96.60;;;;;;5077715;28;20058;-90
2021/07/10 11:47:40;;;;;;;2.35;2.15;;;25.40;96.60;;;;;;5072905;28;20032;-88
2021/07/10 11:50:22;;;;;;;2.30;2.10;;;25.40;96.70;;;;;;5076123;28;20029;-87
2021/07/10 11:53:05;;;;;;;2.20;2.03;;;25.40;96.70;;;;;;5065317;28;20035;-88
2021/07/10 11:55:39;;;;;;;2.25;2.05;;;25.40;96.70;;;;;;5064772;28;20093;-88
2021/07/10 11:58:09;;;;;;;2.10;1.90;;;25.40;96.80;;;;;;5074553;28;20185;-88
2021/07/10 12:00:36;;;;;;;2.40;2.20;;;25.40;96.80;;;;;;5076162;28;20021;-88
2021/07/10 12:03:04;;;;;;;2.25;2.05;;;25.50;96.90;;;;;;5058016;28;20031;-88
2021/07/10 12:05:33;;;;;;;2.33;2.13;;;25.50;96.90;;;;;;5090469;28;20050;-88
2021/07/10 12:08:00;;;;;;;2.28;2.08;;;25.50;96.80;;;;;;5062082;28;20039;-88
2021/07/10 12:10:38;;;;;;;2.58;2.38;;;25.50;96.80;;;;;;5041179;28;20059;-88
2021/07/10 12:13:14;;;;;;;2.40;2.20;;;25.50;96.80;;;;;;5074828;28;20462;-88
2021/07/10 12:15:47;;;;;;;2.47;2.28;;;25.60;96.80;;;;;;5075330;28;20033;-89
2021/07/10 12:18:14;;;;;;;2.17;1.98;;;25.60;96.80;;;;;;5080147;28;20104;-89
2021/07/10 12:20:44;;;;;;;2.85;2.65;;;25.50;96.70;;;;;;5078823;28;20032;-88
2021/07/10 12:23:31;;;;;;;2.50;2.28;;;25.60;96.70;;;;;;5077928;28;20025;-88
2021/07/10 12:26:06;;;;;;;2.53;2.33;;;25.60;96.60;;;;;;5077874;28;20385;-88
2021/07/10 12:28:53;;;;;;;2.70;2.50;;;25.60;96.60;;;;;;5077463;28;20044;-88
2021/07/10 12:31:30;;;;;;;2.67;2.45;;;25.60;96.60;;;;;;5069660;28;20040;-88
2021/07/10 12:34:04;;;;;;;2.50;2.30;;;25.60;96.60;;;;;;5063685;28;20033;-88
2021/07/10 12:36:38;;;;;;;2.85;2.38;;;25.60;96.50;;;;;;5074332;28;20063;-87
2021/07/10 12:39:07;;;;;;;;;;;25.60;96.50;;;;;;5061957;28;20041;-89
2021/07/10 12:41:37;;;;;;;2.90;2.60;;;25.60;96.50;;;;;;5059348;28;20321;-88
2021/07/10 12:44:21;;;;;;;2.65;2.45;;;25.60;96.60;;;;;;5064645;28;20025;-89
2021/07/10 12:46:48;;;;;;;2.55;2.35;;;25.60;96.50;;;;;;5058323;28;20441;-88
2021/07/10 12:49:14;;;;;;;2.55;2.35;;;25.60;96.50;;;;;;5057622;28;20390;-89
2021/07/10 12:51:40;;;;;;;2.58;2.38;;;25.60;96.50;;;;;;5050916;28;20028;-88
2021/07/10 12:54:30;;;;;;;2.90;2.60;;;25.60;96.50;;;;;;5060245;28;20033;-89